Terminal Aerodrome Forecast
Issued by NWS Hastings, NE

Home | Current Version | Previous Version | Text Only | Print | Product List | Glossary On
Versions: 1 2 3 4 5 6 7 8 9 10 11 12 13 14 15 16 17 18 19 20 21
000
FTUS45 KGID 191743 CCA
TAFEAR
TAF COR
KEAR 191743Z 1918/2018 19017G25KT P6SM SCT250
     FM200000 19009KT P6SM SCT250
     FM200400 23008KT P6SM SCT060 WS007/22038KT
     FM201300 33008KT P6SM SCT250
      AMD LTD TO CLD VIS AND WIND=

USA.gov is the U.S. government's official web portal to all federal, state and local government web resources and services.